Time;durP1;ratioP1;P1;durP2;ratioP2;P2;SDS_P1;SDS_P2;PMS_P1;PMS_P2;Temp;Humidity;BMP_temperature;BMP_pressure;BME280_temperature;BME280_humidity;BME280_pressure;Samples;Min_cycle;Max_cycle;Signal;HPM_P1;HPM_P2
2021/11/30 00:01:14;;;;;;;9.50;7.28;;;7.00;99.90;;;;;;5071625;28;20235;-63
2021/11/30 00:03:41;;;;;;;6.90;6.20;;;6.90;99.90;;;;;;5071467;28;20239;-63
2021/11/30 00:06:11;;;;;;;6.75;6.05;;;6.90;99.90;;;;;;5067772;28;20224;-63
2021/11/30 00:08:39;;;;;;;9.50;6.75;;;6.90;99.90;;;;;;5071515;28;20238;-63
2021/11/30 00:11:07;;;;;;;7.35;5.68;;;6.90;99.90;;;;;;5071245;28;20239;-63
2021/11/30 00:13:36;;;;;;;7.32;6.63;;;6.90;99.90;;;;;;5071339;28;20220;-64
2021/11/30 00:16:03;;;;;;;9.05;7.43;;;6.90;99.90;;;;;;5071629;28;20227;-63
2021/11/30 00:18:32;;;;;;;7.43;6.72;;;6.90;99.90;;;;;;5065255;28;20224;-64
2021/11/30 00:21:01;;;;;;;7.57;6.70;;;6.90;99.90;;;;;;5074696;28;20688;-63
2021/11/30 00:23:29;;;;;;;9.15;6.47;;;6.90;99.90;;;;;;5073199;28;20220;-63
2021/11/30 00:25:56;;;;;;;10.40;8.10;;;6.90;99.90;;;;;;5067688;28;20220;-64
2021/11/30 00:28:23;;;;;;;8.57;7.68;;;6.90;99.90;;;;;;5060383;28;20223;-63
2021/11/30 00:30:51;;;;;;;9.15;8.20;;;6.90;99.90;;;;;;5075380;28;20228;-63
2021/11/30 00:33:18;;;;;;;9.93;8.13;;;7.00;99.90;;;;;;5075892;28;20228;-64
2021/11/30 00:35:45;;;;;;;9.98;8.13;;;7.00;99.90;;;;;;5075252;28;20219;-64
2021/11/30 00:38:13;;;;;;;14.98;10.48;;;7.00;99.90;;;;;;5075133;28;20228;-64
2021/11/30 00:40:42;;;;;;;11.43;8.60;;;7.00;99.90;;;;;;5074829;28;20231;-64
2021/11/30 00:43:10;;;;;;;9.98;8.93;;;7.00;99.90;;;;;;5075775;28;20566;-64
2021/11/30 00:45:41;;;;;;;10.25;9.25;;;7.00;99.90;;;;;;5076327;28;20239;-63
2021/11/30 00:48:11;;;;;;;11.65;10.40;;;7.00;99.90;;;;;;5073349;28;20912;-64
2021/11/30 00:50:43;;;;;;;13.13;11.25;;;7.00;99.90;;;;;;5054953;28;20228;-64
2021/11/30 00:53:10;;;;;;;13.88;10.73;;;7.00;99.90;;;;;;5054579;28;20632;-63
2021/11/30 00:55:37;;;;;;;13.15;10.93;;;7.00;99.90;;;;;;5055103;28;20674;-63
2021/11/30 00:58:06;;;;;;;11.18;9.45;;;7.00;99.90;;;;;;5054286;28;20221;-63
2021/11/30 01:00:35;;;;;;;15.65;11.20;;;7.00;99.90;;;;;;5054703;28;20224;-64
2021/11/30 01:03:03;;;;;;;12.02;10.82;;;7.00;99.90;;;;;;5053923;28;20221;-64
2021/11/30 01:05:30;;;;;;;13.25;10.00;;;7.10;99.90;;;;;;5055252;28;20228;-64
2021/11/30 01:07:57;;;;;;;13.43;11.63;;;7.00;99.90;;;;;;5054957;28;20221;-64
2021/11/30 01:10:24;;;;;;;20.98;15.82;;;7.00;99.90;;;;;;5055204;28;20221;-64
2021/11/30 01:12:51;;;;;;;12.70;10.52;;;7.00;99.90;;;;;;5055102;28;20581;-64
2021/11/30 01:15:21;;;;;;;13.40;11.05;;;7.00;99.90;;;;;;5055401;28;20562;-64
2021/11/30 01:17:48;;;;;;;46.90;30.48;;;7.00;99.90;;;;;;5054797;28;20220;-64
2021/11/30 01:20:17;;;;;;;11.60;10.40;;;7.00;99.90;;;;;;5055084;28;20225;-64
2021/11/30 01:22:45;;;;;;;15.63;12.43;;;7.00;99.90;;;;;;5055260;28;20225;-64
2021/11/30 01:25:12;;;;;;;12.75;11.35;;;7.00;99.90;;;;;;5054804;28;20225;-64
2021/11/30 01:27:40;;;;;;;12.52;11.23;;;7.00;99.90;;;;;;5055182;28;20307;-63
2021/11/30 01:30:10;;;;;;;20.35;14.55;;;7.00;99.90;;;;;;5053561;28;20225;-63
2021/11/30 01:32:38;;;;;;;12.77;11.50;;;7.00;99.90;;;;;;5055027;28;20637;-64
2021/11/30 01:35:06;;;;;;;11.63;10.43;;;7.10;99.90;;;;;;5054586;28;20248;-64
2021/11/30 01:37:34;;;;;;;12.63;10.32;;;7.00;99.90;;;;;;5073044;28;20224;-64
2021/11/30 01:40:04;;;;;;;11.82;10.52;;;7.00;99.90;;;;;;5074373;28;20263;-64
2021/11/30 01:42:31;;;;;;;15.80;12.35;;;7.00;99.90;;;;;;5074875;28;20216;-65
2021/11/30 01:45:04;;;;;;;11.70;10.50;;;7.00;99.90;;;;;;5074389;28;20247;-64
2021/11/30 01:47:59;;;;;;;11.55;10.32;;;7.00;99.90;;;;;;5074647;28;20231;-65
2021/11/30 01:50:26;;;;;;;11.93;10.18;;;7.00;99.90;;;;;;5074868;28;20315;-64
2021/11/30 01:52:53;;;;;;;16.38;11.70;;;7.00;99.90;;;;;;5074177;28;20222;-65
2021/11/30 01:55:20;;;;;;;12.80;11.27;;;7.00;99.90;;;;;;5074642;28;20808;-65
2021/11/30 01:57:49;;;;;;;11.90;10.52;;;7.00;99.90;;;;;;5074133;28;20235;-65
2021/11/30 02:00:17;;;;;;;10.57;8.70;;;7.00;99.90;;;;;;5074318;28;20326;-65
2021/11/30 02:02:44;;;;;;;9.55;8.63;;;7.00;99.90;;;;;;5074073;28;20223;-65
2021/11/30 02:05:12;;;;;;;11.73;10.50;;;7.00;99.90;;;;;;5074277;28;20303;-64
2021/11/30 02:07:45;;;;;;;11.88;10.63;;;7.10;99.90;;;;;;5073798;28;20228;-64
2021/11/30 02:10:14;;;;;;;12.02;10.70;;;7.10;99.90;;;;;;5074153;28;20227;-64
2021/11/30 02:12:42;;;;;;;13.88;11.07;;;7.20;99.90;;;;;;5073825;28;20247;-65
2021/11/30 02:15:12;;;;;;;14.20;11.63;;;7.20;99.90;;;;;;5074057;28;20243;-64
2021/11/30 02:17:40;;;;;;;11.57;9.98;;;7.20;99.90;;;;;;5073589;28;20220;-65
2021/11/30 02:20:09;;;;;;;12.43;11.13;;;7.20;99.90;;;;;;5073810;28;20235;-64
2021/11/30 02:22:37;;;;;;;12.73;10.93;;;7.20;99.90;;;;;;5073623;28;20682;-63
2021/11/30 02:25:06;;;;;;;15.45;11.77;;;7.20;99.90;;;;;;5074035;28;20803;-64
2021/11/30 02:27:33;;;;;;;13.35;10.40;;;7.20;99.90;;;;;;5073333;28;20232;-64
2021/11/30 02:30:00;;;;;;;11.98;10.60;;;7.20;99.90;;;;;;5073880;28;20228;-65
2021/11/30 02:32:27;;;;;;;12.52;11.25;;;7.20;99.90;;;;;;5073858;28;20578;-65
2021/11/30 02:34:54;;;;;;;11.80;10.40;;;7.20;99.90;;;;;;5073270;28;20228;-64
2021/11/30 02:37:25;;;;;;;12.45;10.63;;;7.10;99.90;;;;;;5073220;28;20240;-64
2021/11/30 02:39:54;;;;;;;18.85;13.45;;;7.10;99.90;;;;;;5073297;28;20227;-64
2021/11/30 02:42:21;;;;;;;15.27;12.45;;;7.10;99.90;;;;;;5073511;28;20228;-64
2021/11/30 02:44:48;;;;;;;13.93;11.98;;;7.10;99.90;;;;;;5073138;28;20231;-64
2021/11/30 02:47:16;;;;;;;14.13;12.73;;;7.10;99.90;;;;;;5073614;28;20231;-64
2021/11/30 02:49:45;;;;;;;16.20;14.27;;;7.00;99.90;;;;;;5072932;28;20235;-63
2021/11/30 02:52:13;;;;;;;14.50;13.02;;;7.00;99.90;;;;;;5073419;28;20235;-63
2021/11/30 02:54:46;;;;;;;13.75;12.10;;;7.00;99.90;;;;;;5073045;28;20231;-65
2021/11/30 02:57:16;;;;;;;26.20;18.70;;;7.00;99.90;;;;;;5073295;28;20247;-64
2021/11/30 02:59:45;;;;;;;14.85;12.80;;;7.00;99.90;;;;;;5072855;28;20220;-64
2021/11/30 03:02:17;;;;;;;15.70;13.80;;;6.80;99.90;;;;;;5073424;28;20224;-64
2021/11/30 03:04:48;;;;;;;15.00;13.10;;;6.80;99.90;;;;;;5072892;28;20231;-64
2021/11/30 03:07:18;;;;;;;15.40;12.98;;;6.70;99.90;;;;;;5072995;28;20682;-65
2021/11/30 03:09:47;;;;;;;14.13;12.20;;;6.60;99.90;;;;;;5072701;28;20232;-64
2021/11/30 03:12:14;;;;;;;18.13;14.88;;;6.60;99.90;;;;;;5073103;28;20289;-65
2021/11/30 03:14:41;;;;;;;12.82;11.48;;;6.60;99.90;;;;;;5072628;28;20232;-65
2021/11/30 03:17:08;;;;;;;15.63;13.13;;;6.60;99.90;;;;;;5073088;28;20231;-65
2021/11/30 03:19:35;;;;;;;16.38;14.02;;;6.60;99.90;;;;;;5072912;28;20228;-64
2021/11/30 03:22:04;;;;;;;18.00;15.27;;;6.50;99.90;;;;;;5072601;28;20654;-63
2021/11/30 03:24:31;;;;;;;17.83;14.27;;;6.60;99.90;;;;;;5072992;28;20231;-64
2021/11/30 03:27:00;;;;;;;17.70;14.13;;;6.50;99.90;;;;;;5072465;28;20239;-64
2021/11/30 03:29:27;;;;;;;17.60;14.57;;;6.60;99.90;;;;;;5072911;28;20567;-64
2021/11/30 03:32:03;;;;;;;16.77;14.10;;;6.50;99.90;;;;;;5072417;28;20223;-64
2021/11/30 03:34:29;;;;;;;14.48;12.00;;;6.50;99.90;;;;;;5072996;28;20298;-65
2021/11/30 03:36:57;;;;;;;17.90;14.95;;;6.50;99.90;;;;;;5071979;28;20632;-65
2021/11/30 03:39:27;;;;;;;14.90;13.30;;;6.60;99.90;;;;;;5072647;28;20232;-63
2021/11/30 03:41:56;;;;;;;15.15;12.93;;;6.60;99.90;;;;;;5072457;28;20228;-64
2021/11/30 03:44:25;;;;;;;15.65;13.27;;;6.60;99.90;;;;;;5072658;28;20224;-64
2021/11/30 03:46:54;;;;;;;17.00;14.50;;;6.60;99.90;;;;;;5072344;28;20228;-64
2021/11/30 03:49:22;;;;;;;15.93;13.35;;;6.70;99.90;;;;;;5072848;28;20239;-65
2021/11/30 03:51:49;;;;;;;16.25;13.70;;;6.60;99.90;;;;;;5072012;28;20216;-65
2021/11/30 03:54:18;;;;;;;14.98;13.40;;;6.60;99.90;;;;;;5077858;28;20219;-65
2021/11/30 03:56:45;;;;;;;17.05;13.00;;;6.60;99.90;;;;;;5079060;28;20566;-64
2021/11/30 03:59:12;;;;;;;24.92;19.40;;;6.50;99.90;;;;;;5079064;28;20232;-65
2021/11/30 04:01:40;;;;;;;18.67;16.65;;;6.40;99.90;;;;;;5079219;28;20231;-64
2021/11/30 04:04:20;;;;;;;22.02;18.33;;;6.50;99.90;;;;;;5078963;28;20965;-64
2021/11/30 04:06:48;;;;;;;17.05;14.15;;;6.60;99.90;;;;;;5078738;28;20227;-65
2021/11/30 04:09:15;;;;;;;15.07;13.23;;;6.60;99.90;;;;;;5079047;28;20626;-64
2021/11/30 04:11:42;;;;;;;15.10;13.52;;;6.50;99.90;;;;;;5079214;28;20249;-65
2021/11/30 04:14:09;;;;;;;15.20;13.60;;;6.60;99.90;;;;;;5078858;28;20234;-65
2021/11/30 04:16:37;;;;;;;18.17;14.00;;;6.60;99.90;;;;;;5079096;28;20540;-64
2021/11/30 04:19:05;;;;;;;16.08;13.30;;;6.60;99.90;;;;;;5078671;28;20561;-64
2021/11/30 04:21:33;;;;;;;14.90;12.60;;;6.60;99.90;;;;;;5079094;28;20237;-65
2021/11/30 04:24:00;;;;;;;15.50;12.52;;;6.60;99.90;;;;;;5078609;28;20238;-65
2021/11/30 04:26:27;;;;;;;16.00;12.73;;;6.50;99.90;;;;;;5079155;28;20219;-64
2021/11/30 04:28:54;;;;;;;19.30;14.50;;;6.40;99.90;;;;;;5078325;28;20220;-65
2021/11/30 04:31:21;;;;;;;17.83;13.63;;;6.40;99.90;;;;;;5078803;28;20239;-65
2021/11/30 04:33:48;;;;;;;14.98;12.23;;;6.40;99.90;;;;;;5078581;28;20701;-65
2021/11/30 04:36:17;;;;;;;18.88;14.73;;;6.40;99.90;;;;;;5078710;28;20302;-64
2021/11/30 04:38:44;;;;;;;16.63;12.90;;;6.40;99.90;;;;;;5078521;28;20228;-65
2021/11/30 04:41:11;;;;;;;16.52;13.38;;;6.30;99.90;;;;;;5078534;28;20227;-64
2021/11/30 04:43:38;;;;;;;14.02;12.05;;;6.30;99.90;;;;;;5078846;28;20215;-65
2021/11/30 04:46:11;;;;;;;15.63;12.30;;;6.20;99.90;;;;;;5078443;28;20224;-65
2021/11/30 04:48:43;;;;;;;14.45;12.13;;;6.20;99.90;;;;;;5078779;28;20220;-65
2021/11/30 04:51:12;;;;;;;16.98;13.00;;;6.20;99.90;;;;;;5078401;28;20685;-64
2021/11/30 04:53:44;;;;;;;16.48;12.35;;;6.20;99.90;;;;;;5078782;28;20216;-65
2021/11/30 04:56:13;;;;;;;12.68;11.40;;;6.20;99.90;;;;;;5078378;28;20303;-64
2021/11/30 04:58:40;;;;;;;13.90;11.50;;;6.20;99.90;;;;;;5078826;28;20212;-65
2021/11/30 05:01:07;;;;;;;15.00;12.52;;;6.20;99.90;;;;;;5078102;28;20231;-65
2021/11/30 05:03:35;;;;;;;13.20;10.70;;;6.20;99.90;;;;;;5078824;28;20246;-64
2021/11/30 05:06:02;;;;;;;13.57;12.05;;;6.20;99.90;;;;;;5073944;28;20246;-64
2021/11/30 05:08:29;;;;;;;14.88;10.52;;;6.20;99.90;;;;;;5075363;28;20228;-64
2021/11/30 05:10:57;;;;;;;13.48;11.38;;;6.10;99.90;;;;;;5074905;28;20231;-64
2021/11/30 05:13:24;;;;;;;14.95;12.10;;;6.00;99.90;;;;;;5075610;28;20228;-64
2021/11/30 05:15:51;;;;;;;14.20;10.65;;;5.90;99.90;;;;;;5074888;28;20216;-64
2021/11/30 05:18:18;;;;;;;16.25;10.93;;;6.00;99.90;;;;;;5075472;28;20614;-64
2021/11/30 05:20:45;;;;;;;13.32;11.13;;;5.90;99.90;;;;;;5075077;28;20231;-65
2021/11/30 05:23:14;;;;;;;13.00;10.45;;;5.80;99.90;;;;;;5074725;28;20220;-65
2021/11/30 05:25:43;;;;;;;12.88;11.40;;;5.80;99.90;;;;;;5075245;28;20216;-65
2021/11/30 05:28:12;;;;;;;12.48;9.88;;;5.70;99.90;;;;;;5074568;28;20720;-64
2021/11/30 05:30:39;;;;;;;13.15;10.98;;;5.70;99.90;;;;;;5074943;28;20224;-64
2021/11/30 05:33:08;;;;;;;12.02;10.23;;;5.70;99.90;;;;;;5074702;28;20224;-64
2021/11/30 05:35:36;;;;;;;14.65;11.35;;;5.70;99.90;;;;;;5074908;28;20231;-64
2021/11/30 05:38:03;;;;;;;12.65;10.75;;;5.70;99.90;;;;;;5074192;28;20224;-64
2021/11/30 05:40:32;;;;;;;13.13;10.50;;;5.70;99.90;;;;;;5075011;28;20243;-64
2021/11/30 05:42:59;;;;;;;12.73;10.05;;;5.60;99.90;;;;;;5074374;28;20228;-65
2021/11/30 05:45:27;;;;;;;11.68;9.50;;;5.60;99.90;;;;;;5074912;28;20688;-64
2021/11/30 05:47:55;;;;;;;13.25;10.10;;;5.50;99.90;;;;;;5074314;28;20227;-64
2021/11/30 05:50:22;;;;;;;11.82;9.15;;;5.50;99.90;;;;;;5074579;28;20227;-65
2021/11/30 05:52:48;;;;;;;12.30;9.20;;;5.40;99.90;;;;;;5074561;28;20223;-64
2021/11/30 05:55:15;;;;;;;10.73;8.90;;;5.50;99.90;;;;;;5074271;28;20258;-65
2021/11/30 05:57:43;;;;;;;12.35;10.05;;;5.40;99.90;;;;;;5074564;28;20669;-63
2021/11/30 06:00:12;;;;;;;11.63;10.02;;;5.40;99.90;;;;;;5073913;28;20258;-64
2021/11/30 06:02:54;;;;;;;11.18;8.95;;;5.30;99.90;;;;;;5074525;28;20230;-65
2021/11/30 06:05:21;;;;;;;10.20;8.50;;;5.30;99.90;;;;;;5074085;28;20227;-64
2021/11/30 06:07:48;;;;;;;11.65;8.60;;;5.30;99.90;;;;;;5074207;28;20325;-65
2021/11/30 06:10:16;;;;;;;13.82;9.50;;;5.20;99.90;;;;;;5073684;28;20228;-64
2021/11/30 06:12:42;;;;;;;11.60;8.98;;;5.20;99.90;;;;;;5074280;28;20594;-64
2021/11/30 06:15:11;;;;;;;12.68;10.57;;;5.20;99.90;;;;;;5073754;28;20935;-65
2021/11/30 06:17:38;;;;;;;11.50;9.63;;;5.20;99.90;;;;;;5073752;28;20578;-64
2021/11/30 06:20:10;;;;;;;12.90;10.35;;;5.20;99.90;;;;;;5073498;28;20239;-65
2021/11/30 06:22:37;;;;;;;13.45;11.15;;;5.30;99.90;;;;;;5073876;28;20224;-65
2021/11/30 06:25:05;;;;;;;11.20;9.52;;;5.30;99.90;;;;;;5073544;28;20232;-65
2021/11/30 06:27:32;;;;;;;10.95;8.52;;;5.40;99.90;;;;;;5073968;28;20252;-65
2021/11/30 06:29:59;;;;;;;12.98;9.48;;;5.40;99.90;;;;;;5073296;28;20235;-65
2021/11/30 06:32:26;;;;;;;11.23;8.82;;;5.50;99.90;;;;;;5073925;28;20228;-63
2021/11/30 06:34:53;;;;;;;11.88;9.07;;;5.50;99.90;;;;;;5073665;28;20223;-64
2021/11/30 06:37:21;;;;;;;10.93;8.60;;;5.40;99.90;;;;;;5072898;28;20228;-64
2021/11/30 06:39:51;;;;;;;14.95;10.80;;;5.30;99.90;;;;;;5073661;28;20227;-64
2021/11/30 06:42:18;;;;;;;11.20;8.90;;;5.30;99.90;;;;;;5073265;28;20293;-64
2021/11/30 06:44:46;;;;;;;11.60;9.93;;;5.20;99.90;;;;;;5073579;28;20704;-64
2021/11/30 06:47:13;;;;;;;11.85;9.00;;;5.20;99.90;;;;;;5073123;28;20689;-64
2021/11/30 06:49:40;;;;;;;9.98;8.77;;;5.20;99.90;;;;;;5073447;28;20681;-64
2021/11/30 06:52:07;;;;;;;11.63;10.43;;;5.20;99.90;;;;;;5072967;28;20234;-64
2021/11/30 06:54:36;;;;;;;12.15;8.23;;;5.20;99.90;;;;;;5073517;28;20220;-64
2021/11/30 06:57:03;;;;;;;10.68;8.30;;;5.30;99.90;;;;;;5072863;28;20223;-64
2021/11/30 06:59:30;;;;;;;11.10;8.63;;;5.30;99.90;;;;;;5073355;28;20571;-64
2021/11/30 07:01:57;;;;;;;10.70;8.57;;;5.30;99.90;;;;;;5073345;28;20250;-64
2021/11/30 07:04:27;;;;;;;9.48;7.72;;;5.40;99.90;;;;;;5072838;28;20620;-64
2021/11/30 07:07:02;;;;;;;12.25;8.90;;;5.30;99.90;;;;;;5072930;28;20311;-64
2021/11/30 07:09:38;;;;;;;11.85;8.20;;;5.20;99.90;;;;;;5072602;28;21287;-64
2021/11/30 07:12:24;;;;;;;12.90;8.50;;;5.20;99.90;;;;;;5072511;28;20234;-64
2021/11/30 07:14:51;;;;;;;11.68;9.20;;;5.30;99.90;;;;;;5073138;28;20246;-64
2021/11/30 07:17:18;;;;;;;15.75;10.20;;;5.40;99.90;;;;;;5072540;28;20220;-64
2021/11/30 07:19:45;;;;;;;11.75;9.25;;;5.40;99.90;;;;;;5072717;28;20566;-64
2021/11/30 07:22:12;;;;;;;9.25;7.65;;;5.30;99.90;;;;;;5072460;28;20235;-64
2021/11/30 07:24:39;;;;;;;10.55;9.45;;;5.40;99.90;;;;;;5072905;28;20784;-63
2021/11/30 07:27:08;;;;;;;11.25;9.95;;;5.30;99.90;;;;;;5072190;28;20570;-64
2021/11/30 07:29:34;;;;;;;22.17;13.98;;;5.20;99.90;;;;;;5072502;28;20539;-64
2021/11/30 07:32:01;;;;;;;16.35;13.38;;;5.10;99.90;;;;;;5072824;28;20227;-64
2021/11/30 07:34:29;;;;;;;10.95;9.73;;;5.10;99.90;;;;;;5072415;28;20220;-64
2021/11/30 07:36:56;;;;;;;13.52;11.75;;;5.10;99.90;;;;;;5072504;28;20321;-64
2021/11/30 07:39:24;;;;;;;10.43;8.95;;;5.10;99.90;;;;;;5072112;28;20735;-64
2021/11/30 07:41:51;;;;;;;10.32;6.80;;;5.20;99.90;;;;;;5072716;28;20238;-63
2021/11/30 07:44:19;;;;;;;7.68;6.88;;;5.20;99.90;;;;;;5072373;28;20235;-63
2021/11/30 07:46:46;;;;;;;8.57;6.68;;;5.10;99.90;;;;;;5072613;28;20238;-64
2021/11/30 07:49:14;;;;;;;7.00;6.30;;;5.20;99.90;;;;;;5072013;28;20235;-64
2021/11/30 07:51:41;;;;;;;7.70;6.75;;;5.10;99.90;;;;;;5072481;28;20231;-64
2021/11/30 07:54:08;;;;;;;8.02;6.40;;;5.10;99.90;;;;;;5072193;28;20224;-63
2021/11/30 07:56:36;;;;;;;9.68;6.80;;;5.00;99.90;;;;;;5072513;28;20224;-64
2021/11/30 07:59:03;;;;;;;11.05;9.05;;;5.00;99.90;;;;;;5072463;28;20714;-63
2021/11/30 08:01:32;;;;;;;7.97;6.90;;;5.00;99.90;;;;;;5071976;28;20223;-63
2021/11/30 08:03:59;;;;;;;9.48;7.60;;;5.00;99.90;;;;;;5072442;28;20265;-63
2021/11/30 08:06:26;;;;;;;8.85;7.95;;;5.10;99.90;;;;;;5071994;28;20224;-63
2021/11/30 08:08:55;;;;;;;8.68;7.25;;;5.10;99.90;;;;;;5072413;28;20223;-63
2021/11/30 08:11:22;;;;;;;5.90;5.32;;;5.20;99.90;;;;;;5072055;28;20227;-63
2021/11/30 08:13:49;;;;;;;6.30;5.68;;;5.20;99.90;;;;;;5072503;28;20220;-63
2021/11/30 08:16:16;;;;;;;21.92;13.88;;;5.20;99.90;;;;;;5071946;28;20224;-63
2021/11/30 08:18:44;;;;;;;10.93;9.82;;;5.20;99.90;;;;;;5072460;28;20226;-63
2021/11/30 08:21:11;;;;;;;7.40;6.65;;;5.20;99.90;;;;;;5071822;28;20239;-64
2021/11/30 08:23:38;;;;;;;8.00;7.20;;;5.30;99.90;;;;;;5072196;28;20219;-63
2021/11/30 08:26:05;;;;;;;5.75;5.25;;;5.20;99.90;;;;;;5072460;28;20224;-63
2021/11/30 08:28:32;;;;;;;6.40;5.25;;;5.30;99.90;;;;;;5071837;28;20226;-63
2021/11/30 08:30:59;;;;;;;6.45;5.90;;;5.30;99.90;;;;;;5072154;28;20585;-63
2021/11/30 08:33:26;;;;;;;7.47;5.40;;;5.30;99.90;;;;;;5071867;28;20224;-63
2021/11/30 08:35:56;;;;;;;6.45;5.78;;;5.30;99.90;;;;;;5071973;28;20216;-64
2021/11/30 08:38:23;;;;;;;7.55;6.85;;;5.30;99.90;;;;;;5071492;28;20286;-63
2021/11/30 08:40:50;;;;;;;5.00;4.50;;;5.40;99.90;;;;;;5075804;28;20679;-63
2021/11/30 08:43:17;;;;;;;5.13;4.63;;;5.50;99.90;;;;;;5075427;28;20224;-63
2021/11/30 08:45:44;;;;;;;6.22;5.05;;;5.40;99.90;;;;;;5075834;28;20235;-63
2021/11/30 08:48:12;;;;;;;5.00;4.60;;;5.50;99.90;;;;;;5075953;28;20543;-63
2021/11/30 08:50:39;;;;;;;6.10;5.50;;;5.60;99.90;;;;;;5075447;28;20293;-63
2021/11/30 08:53:07;;;;;;;9.90;8.73;;;5.70;99.90;;;;;;5075649;28;20233;-63
2021/11/30 08:55:35;;;;;;;7.38;6.78;;;5.80;99.90;;;;;;5075209;28;20232;-63
2021/11/30 08:58:02;;;;;;;6.07;5.55;;;5.80;99.90;;;;;;5075627;28;20558;-63
2021/11/30 09:00:30;;;;;;;5.75;5.20;;;5.90;99.90;;;;;;5075277;28;20608;-63
2021/11/30 09:02:57;;;;;;;5.60;5.00;;;6.00;99.90;;;;;;5075380;28;20270;-63
2021/11/30 09:05:24;;;;;;;5.40;4.90;;;6.10;99.90;;;;;;5074957;28;20224;-63
2021/11/30 09:07:52;;;;;;;4.93;4.53;;;6.10;99.90;;;;;;5075552;28;20231;-63
2021/11/30 09:10:21;;;;;;;7.70;5.80;;;6.20;99.90;;;;;;5074772;28;20239;-64
2021/11/30 09:12:48;;;;;;;6.15;4.90;;;6.30;99.90;;;;;;5075350;28;20227;-63
2021/11/30 09:15:15;;;;;;;6.25;5.20;;;6.40;99.90;;;;;;5075267;28;20285;-63
2021/11/30 09:17:44;;;;;;;5.82;4.70;;;6.40;99.90;;;;;;5075060;28;20219;-63
2021/11/30 09:20:12;;;;;;;5.55;4.45;;;6.50;99.90;;;;;;5074947;28;20282;-64
2021/11/30 09:22:39;;;;;;;4.82;4.30;;;6.50;99.90;;;;;;5074904;28;20224;-63
2021/11/30 09:25:08;;;;;;;5.68;5.13;;;6.60;99.90;;;;;;5075082;28;20254;-63
2021/11/30 09:27:36;;;;;;;4.55;4.25;;;6.60;99.90;;;;;;5074600;28;20597;-63
2021/11/30 09:30:07;;;;;;;6.55;5.85;;;6.70;99.90;;;;;;5075037;28;20231;-63
2021/11/30 09:32:34;;;;;;;4.30;3.90;;;6.70;99.90;;;;;;5074686;28;20216;-63
2021/11/30 09:35:02;;;;;;;4.60;4.20;;;6.80;99.90;;;;;;5074749;28;20227;-63
2021/11/30 09:37:29;;;;;;;4.78;3.92;;;6.80;99.90;;;;;;5074095;28;20248;-63
2021/11/30 09:39:58;;;;;;;5.35;4.30;;;6.80;99.90;;;;;;5074870;28;20228;-63
2021/11/30 09:42:25;;;;;;;3.80;3.50;;;6.80;99.90;;;;;;5074122;28;20234;-63
2021/11/30 09:44:56;;;;;;;4.00;3.70;;;6.80;99.90;;;;;;5074011;28;20682;-63
2021/11/30 09:47:23;;;;;;;4.63;4.32;;;6.80;99.90;;;;;;5072659;28;20607;-63
2021/11/30 09:49:50;;;;;;;4.35;4.05;;;6.90;99.90;;;;;;5073304;28;20236;-63
2021/11/30 09:52:17;;;;;;;4.57;4.20;;;6.90;99.90;;;;;;5073273;28;20588;-63
2021/11/30 09:54:45;;;;;;;4.50;4.10;;;6.80;99.90;;;;;;5073006;28;20231;-63
2021/11/30 09:57:12;;;;;;;4.20;3.90;;;6.90;99.90;;;;;;5073631;28;20261;-63
2021/11/30 09:59:42;;;;;;;6.85;6.15;;;6.90;99.90;;;;;;5074146;28;20228;-63
2021/11/30 10:02:10;;;;;;;7.50;6.80;;;7.00;99.90;;;;;;5074494;28;20224;-63
2021/11/30 10:04:38;;;;;;;7.55;6.85;;;7.00;99.90;;;;;;5073914;28;20704;-63
2021/11/30 10:07:06;;;;;;;7.07;6.53;;;7.00;99.90;;;;;;5074497;28;20271;-63
2021/11/30 10:09:33;;;;;;;7.88;7.25;;;7.00;99.90;;;;;;5073820;28;20547;-63
2021/11/30 10:12:01;;;;;;;6.20;5.80;;;7.10;99.90;;;;;;5074393;28;20220;-63
2021/11/30 10:14:34;;;;;;;6.25;5.75;;;7.00;99.90;;;;;;5073912;28;20236;-63
2021/11/30 10:17:29;;;;;;;5.82;5.35;;;7.10;99.90;;;;;;5074155;28;20216;-64
2021/11/30 10:19:58;;;;;;;5.90;5.45;;;7.10;99.90;;;;;;5064887;28;20737;-63
2021/11/30 10:22:41;;;;;;;4.60;4.20;;;7.10;99.90;;;;;;5073626;28;20219;-63
2021/11/30 10:25:17;;;;;;;5.07;4.68;;;7.10;99.90;;;;;;5073529;28;20675;-63
2021/11/30 10:27:46;;;;;;;4.78;4.45;;;7.20;99.90;;;;;;5073907;28;20216;-63
2021/11/30 10:30:15;;;;;;;5.20;4.70;;;7.20;99.90;;;;;;5073339;28;20565;-63
2021/11/30 10:32:46;;;;;;;5.00;4.60;;;7.20;99.90;;;;;;5073967;28;20246;-63
2021/11/30 10:35:14;;;;;;;4.40;4.07;;;7.20;99.90;;;;;;5073143;28;20247;-63
2021/11/30 10:37:42;;;;;;;6.30;5.18;;;7.30;99.90;;;;;;5073664;28;20291;-63
2021/11/30 10:40:12;;;;;;;5.22;4.82;;;7.30;99.90;;;;;;5073226;28;20223;-63
2021/11/30 10:42:51;;;;;;;4.75;4.35;;;7.40;99.90;;;;;;5073535;28;20220;-63
2021/11/30 10:45:31;;;;;;;4.60;4.30;;;7.40;99.90;;;;;;5073082;28;20235;-64
2021/11/30 10:48:08;;;;;;;4.45;4.05;;;7.40;99.90;;;;;;5065791;28;20678;-63
2021/11/30 10:50:38;;;;;;;3.85;3.63;;;7.50;99.90;;;;;;5053335;28;20626;-63
2021/11/30 10:53:16;;;;;;;3.40;3.20;;;7.50;99.90;;;;;;5053566;28;20225;-63
2021/11/30 10:55:47;;;;;;;4.75;3.65;;;7.50;99.90;;;;;;5053271;28;20236;-63
2021/11/30 10:58:14;;;;;;;4.45;4.15;;;7.60;99.90;;;;;;5053314;28;20252;-63
2021/11/30 11:00:42;;;;;;;3.50;3.30;;;7.60;99.90;;;;;;5052932;28;20670;-63
2021/11/30 11:03:16;;;;;;;4.07;3.78;;;7.60;99.90;;;;;;5052287;28;20228;-63
2021/11/30 11:05:46;;;;;;;4.43;4.10;;;7.70;99.90;;;;;;5056267;28;20234;-63
2021/11/30 11:08:14;;;;;;;3.88;3.58;;;7.70;99.90;;;;;;5073244;28;20224;-63
2021/11/30 11:10:43;;;;;;;4.75;4.35;;;7.80;99.90;;;;;;5072417;28;20220;-63
2021/11/30 11:13:25;;;;;;;4.20;3.88;;;7.80;99.90;;;;;;5072613;28;20266;-63
2021/11/30 11:15:55;;;;;;;4.07;3.70;;;7.80;99.90;;;;;;5072720;28;20220;-63
2021/11/30 11:18:26;;;;;;;4.50;4.10;;;7.70;99.90;;;;;;5072949;28;20231;-63
2021/11/30 11:21:11;;;;;;;3.47;3.15;;;7.70;99.90;;;;;;5072455;28;20942;-63
2021/11/30 11:23:42;;;;;;;3.05;2.85;;;7.70;99.90;;;;;;5072200;28;20697;-63
2021/11/30 11:26:24;;;;;;;3.80;3.22;;;7.80;99.90;;;;;;5072780;28;20231;-63
2021/11/30 11:28:53;;;;;;;3.45;3.15;;;7.70;99.90;;;;;;5072486;28;20228;-63
2021/11/30 11:31:21;;;;;;;2.45;1.95;;;7.70;99.90;;;;;;5072727;28;20231;-63
2021/11/30 11:33:50;;;;;;;1.83;1.70;;;7.80;99.90;;;;;;5072290;28;20224;-63
2021/11/30 11:36:17;;;;;;;5.88;2.10;;;7.80;99.90;;;;;;5061699;28;20235;-63
2021/11/30 11:38:44;;;;;;;4.03;2.40;;;7.80;99.90;;;;;;5072209;28;20240;-63
2021/11/30 11:41:12;;;;;;;1.88;1.70;;;7.80;99.90;;;;;;5070908;28;20234;-63
2021/11/30 11:43:41;;;;;;;2.70;1.40;;;7.80;99.90;;;;;;5052278;28;20229;-63
2021/11/30 11:46:10;;;;;;;3.40;1.75;;;7.90;99.90;;;;;;5052817;28;20240;-63
2021/11/30 11:48:37;;;;;;;5.00;3.25;;;7.90;99.90;;;;;;5070344;28;20723;-63
2021/11/30 11:51:07;;;;;;;3.97;2.08;;;8.00;99.90;;;;;;5072318;28;20239;-63
2021/11/30 11:53:37;;;;;;;3.67;2.13;;;8.00;99.90;;;;;;5072376;28;20701;-63
2021/11/30 11:56:19;;;;;;;3.55;1.75;;;8.00;99.90;;;;;;5067863;28;20220;-63
2021/11/30 11:58:49;;;;;;;3.92;2.00;;;8.00;99.90;;;;;;5072254;28;20625;-63
2021/11/30 12:01:20;;;;;;;4.80;2.53;;;8.00;99.90;;;;;;5072454;28;20612;-65
2021/11/30 12:03:58;;;;;;;5.13;2.58;;;8.10;99.90;;;;;;5072296;28;20262;-62
2021/11/30 12:06:28;;;;;;;8.77;3.60;;;8.10;99.90;;;;;;5072531;28;20262;-63
2021/11/30 12:09:19;;;;;;;9.98;3.35;;;8.10;99.90;;;;;;5072137;28;20223;-63
2021/11/30 12:11:48;;;;;;;12.88;2.92;;;8.10;99.90;;;;;;5071404;28;20227;-63
2021/11/30 12:14:21;;;;;;;6.18;3.20;;;8.10;99.90;;;;;;5073618;28;20244;-63
2021/11/30 12:17:10;;;;;;;3.65;2.88;;;8.10;99.90;;;;;;5076141;28;20577;-63
2021/11/30 12:19:41;;;;;;;7.38;2.90;;;8.00;99.90;;;;;;5075972;28;20238;-63
2021/11/30 12:22:11;;;;;;;10.00;4.40;;;7.90;99.90;;;;;;5056247;28;20601;-63
2021/11/30 12:24:40;;;;;;;7.20;4.28;;;7.90;99.90;;;;;;5055841;28;20233;-63
2021/11/30 12:27:41;;;;;;;7.07;4.38;;;7.90;99.90;;;;;;5056213;28;20717;-63
2021/11/30 12:30:10;;;;;;;5.88;3.40;;;7.90;99.90;;;;;;5055777;28;20832;-62
2021/11/30 12:32:38;;;;;;;6.00;3.95;;;7.90;99.90;;;;;;5056235;28;20237;-63
2021/11/30 12:35:09;;;;;;;9.05;3.30;;;8.00;99.90;;;;;;5055605;28;20224;-63
2021/11/30 12:37:38;;;;;;;7.50;2.20;;;8.00;99.90;;;;;;5074802;28;20259;-63
2021/11/30 12:40:11;;;;;;;3.53;1.83;;;8.00;99.90;;;;;;5075448;28;20244;-63
2021/11/30 12:42:57;;;;;;;7.05;3.65;;;8.10;99.90;;;;;;5075580;28;20220;-63
2021/11/30 12:45:44;;;;;;;8.20;2.65;;;8.10;99.90;;;;;;5076356;28;20219;-63
2021/11/30 12:48:16;;;;;;;7.35;2.50;;;8.20;99.90;;;;;;5072162;28;20220;-63
2021/11/30 12:50:44;;;;;;;6.03;2.95;;;8.20;99.90;;;;;;5055661;28;20236;-63
2021/11/30 12:53:12;;;;;;;7.20;3.10;;;8.20;99.90;;;;;;5055205;28;20235;-63
2021/11/30 12:55:45;;;;;;;6.88;3.40;;;8.20;99.90;;;;;;5055799;28;20260;-63
2021/11/30 12:58:46;;;;;;;14.95;6.75;;;8.20;99.90;;;;;;5055371;28;20548;-63